createdAt,value
2022-11-18T00:01:11.341Z,977.17
2022-11-18T00:02:11.365Z,977.17
2022-11-18T00:03:11.282Z,977.18
2022-11-18T00:04:11.267Z,977.17
2022-11-18T00:05:11.258Z,977.19
2022-11-18T00:06:11.242Z,977.23
2022-11-18T00:07:11.315Z,977.22
2022-11-18T00:08:11.217Z,977.27
2022-11-18T00:09:11.205Z,977.22
2022-11-18T00:10:11.191Z,977.28
2022-11-18T00:12:11.165Z,977.33
2022-11-18T00:13:11.153Z,977.34
2022-11-18T00:14:11.139Z,977.31
2022-11-18T00:15:11.154Z,977.35
2022-11-18T00:16:11.115Z,977.33
2022-11-18T00:17:11.102Z,977.37
2022-11-18T00:18:11.088Z,977.27
2022-11-18T00:19:11.079Z,977.37
2022-11-18T00:20:11.065Z,977.36
2022-11-18T00:21:11.059Z,977.30
2022-11-18T00:23:11.027Z,977.35
2022-11-18T00:24:11.016Z,977.39
2022-11-18T00:25:11.003Z,977.38
2022-11-18T00:26:10.990Z,977.36
2022-11-18T00:27:10.977Z,977.32
2022-11-18T00:28:10.962Z,977.34
2022-11-18T00:29:10.961Z,977.32
2022-11-18T00:30:10.937Z,977.37
2022-11-18T00:31:10.956Z,977.28
2022-11-18T00:32:10.912Z,977.34
2022-11-18T00:34:10.890Z,977.36
2022-11-18T00:35:10.883Z,977.32
2022-11-18T00:36:10.865Z,977.35
2022-11-18T00:37:10.853Z,977.37
2022-11-18T00:38:10.842Z,977.32
2022-11-18T00:39:10.828Z,977.33
2022-11-18T00:40:10.821Z,977.33
2022-11-18T00:41:10.802Z,977.35
2022-11-18T00:42:10.790Z,977.32
2022-11-18T00:43:10.777Z,977.30
2022-11-18T00:45:10.752Z,977.32
2022-11-18T00:46:10.737Z,977.27
2022-11-18T00:47:10.815Z,977.30
2022-11-18T00:48:10.714Z,977.32
2022-11-18T00:49:10.702Z,977.38
2022-11-18T00:50:10.688Z,977.31
2022-11-18T00:51:10.679Z,977.35
2022-11-18T00:52:10.663Z,977.35
2022-11-18T00:53:10.653Z,977.33
2022-11-18T00:54:10.640Z,977.37
2022-11-18T00:56:10.613Z,977.38
2022-11-18T00:57:10.602Z,977.43
2022-11-18T00:58:10.588Z,977.40
2022-11-18T00:59:10.576Z,977.37
2022-11-18T01:00:10.565Z,977.45
2022-11-18T01:01:10.628Z,977.45
2022-11-18T01:02:10.538Z,977.45
2022-11-18T01:03:10.549Z,977.50
2022-11-18T01:04:10.515Z,977.49
2022-11-18T01:05:10.502Z,977.54
2022-11-18T01:07:10.546Z,977.62
2022-11-18T01:08:10.463Z,977.65
2022-11-18T01:09:10.452Z,977.62
2022-11-18T01:10:10.436Z,977.65
2022-11-18T01:11:10.425Z,977.62
2022-11-18T01:12:10.413Z,977.67
2022-11-18T01:13:10.402Z,977.61
2022-11-18T01:14:10.388Z,977.61
2022-11-18T01:15:10.381Z,977.62
2022-11-18T01:16:10.362Z,977.66
2022-11-18T01:18:10.337Z,977.68
2022-11-18T01:19:10.356Z,977.64
2022-11-18T01:20:10.310Z,977.64
2022-11-18T01:21:10.301Z,977.64
2022-11-18T01:22:10.287Z,977.60
2022-11-18T01:23:10.277Z,977.66
2022-11-18T01:24:10.261Z,977.61
2022-11-18T01:25:10.249Z,977.64
2022-11-18T01:26:10.239Z,977.70
2022-11-18T01:27:10.224Z,977.72
2022-11-18T01:29:10.202Z,977.69
2022-11-18T01:30:10.184Z,977.72
2022-11-18T01:31:10.175Z,977.65
2022-11-18T01:32:24.399Z,977.69
2022-11-18T01:33:12.148Z,977.63
2022-11-18T01:34:10.135Z,977.64
2022-11-18T01:35:10.153Z,977.64
2022-11-18T01:36:10.110Z,977.65
2022-11-18T01:37:10.101Z,977.65
2022-11-18T01:38:10.085Z,977.60
2022-11-18T01:40:10.060Z,977.67
2022-11-18T01:41:10.048Z,977.66
2022-11-18T01:42:10.038Z,977.67
2022-11-18T01:43:10.024Z,977.67
2022-11-18T01:44:10.009Z,977.69
2022-11-18T01:45:10.341Z,977.72
2022-11-18T01:46:09.983Z,977.68
2022-11-18T01:47:09.973Z,977.68
2022-11-18T01:48:09.959Z,977.70
2022-11-18T01:49:09.948Z,977.68
2022-11-18T01:51:09.947Z,977.70
2022-11-18T01:52:09.907Z,977.74
2022-11-18T01:53:09.896Z,977.76
2022-11-18T01:54:09.882Z,977.74
2022-11-18T01:55:09.874Z,977.73
2022-11-18T01:56:09.857Z,977.73
2022-11-18T01:57:09.847Z,977.75
2022-11-18T01:58:09.835Z,977.83
2022-11-18T01:59:09.824Z,977.82
2022-11-18T02:00:09.810Z,977.80
2022-11-18T02:02:09.783Z,977.77
2022-11-18T02:03:09.777Z,977.77
2022-11-18T02:04:09.757Z,977.75
2022-11-18T02:05:09.747Z,977.74
2022-11-18T02:06:09.733Z,977.76
2022-11-18T02:07:09.785Z,977.76
2022-11-18T02:08:09.707Z,977.78
2022-11-18T02:09:09.696Z,977.75
2022-11-18T02:10:09.682Z,977.77
2022-11-18T02:11:09.681Z,977.81
2022-11-18T02:13:09.645Z,977.80
2022-11-18T02:14:09.631Z,977.85
2022-11-18T02:15:09.620Z,977.89
2022-11-18T02:16:09.613Z,977.97
2022-11-18T02:17:09.595Z,977.84
2022-11-18T02:18:09.580Z,977.85
2022-11-18T02:19:09.572Z,977.90
2022-11-18T02:20:09.553Z,977.97
2022-11-18T02:21:09.550Z,977.99
2022-11-18T02:22:09.528Z,977.94
2022-11-18T02:24:09.502Z,977.97
2022-11-18T02:25:09.490Z,977.96
2022-11-18T02:26:09.476Z,978.02
2022-11-18T02:27:09.465Z,978.07
2022-11-18T02:28:09.450Z,978.05
2022-11-18T02:29:09.438Z,978.05
2022-11-18T02:30:09.424Z,978.05
2022-11-18T02:31:09.413Z,978.11
2022-11-18T02:32:09.398Z,978.06
2022-11-18T02:33:09.395Z,978.10
2022-11-18T02:35:09.362Z,978.10
2022-11-18T02:36:09.348Z,978.06
2022-11-18T02:37:09.337Z,978.10
2022-11-18T02:38:09.321Z,978.11
2022-11-18T02:39:09.336Z,978.10
2022-11-18T02:40:09.295Z,978.09
2022-11-18T02:41:09.284Z,978.12
2022-11-18T02:42:09.270Z,978.11
2022-11-18T02:43:09.262Z,978.13
2022-11-18T02:44:09.244Z,978.08
2022-11-18T02:46:09.222Z,978.07
2022-11-18T02:47:09.205Z,978.04
2022-11-18T02:48:09.200Z,978.11
2022-11-18T02:49:09.178Z,978.11
2022-11-18T02:50:09.171Z,978.14
2022-11-18T02:51:09.153Z,978.15
2022-11-18T02:52:09.142Z,978.14
2022-11-18T02:53:09.130Z,978.12
2022-11-18T02:54:09.116Z,978.10
2022-11-18T02:55:09.129Z,978.12
2022-11-18T02:57:09.079Z,978.08
2022-11-18T02:58:09.065Z,978.07
2022-11-18T02:59:09.050Z,978.09
2022-11-18T03:00:09.038Z,978.10
2022-11-18T03:01:09.070Z,978.06
2022-11-18T03:02:09.013Z,978.09
2022-11-18T03:03:08.998Z,978.11
2022-11-18T03:04:08.987Z,978.13
2022-11-18T03:05:08.972Z,978.13
2022-11-18T03:06:08.960Z,978.15
2022-11-18T03:08:08.936Z,978.12
2022-11-18T03:09:08.919Z,978.13
2022-11-18T03:10:08.908Z,978.11
2022-11-18T03:11:08.916Z,978.18
2022-11-18T03:12:08.884Z,978.21
2022-11-18T03:13:08.869Z,978.22
2022-11-18T03:14:08.857Z,978.22
2022-11-18T03:15:08.842Z,978.28
2022-11-18T03:16:08.832Z,978.25
2022-11-18T03:17:08.815Z,978.25
2022-11-18T03:19:08.793Z,978.25
2022-11-18T03:20:08.780Z,978.23
2022-11-18T03:21:08.765Z,978.23
2022-11-18T03:22:08.753Z,978.30
2022-11-18T03:23:08.744Z,978.29
2022-11-18T03:24:08.727Z,978.29
2022-11-18T03:25:08.714Z,978.30
2022-11-18T03:26:08.701Z,978.32
2022-11-18T03:27:08.715Z,978.27
2022-11-18T03:28:08.676Z,978.28
2022-11-18T03:30:08.651Z,978.39
2022-11-18T03:31:08.637Z,978.37
2022-11-18T03:32:08.627Z,978.33
2022-11-18T03:33:08.612Z,978.37
2022-11-18T03:34:08.601Z,978.36
2022-11-18T03:35:08.590Z,978.34
2022-11-18T03:36:08.576Z,978.31
2022-11-18T03:37:10.631Z,978.37
2022-11-18T03:38:08.550Z,978.40
2022-11-18T03:39:08.534Z,978.36
2022-11-18T03:41:08.510Z,978.35
2022-11-18T03:42:08.500Z,978.42
2022-11-18T03:43:08.572Z,978.44
2022-11-18T03:44:08.475Z,978.46
2022-11-18T03:45:08.461Z,978.45
2022-11-18T03:46:08.450Z,978.49
2022-11-18T03:47:08.439Z,978.50
2022-11-18T03:48:08.424Z,978.56
2022-11-18T03:49:08.415Z,978.57
2022-11-18T03:50:08.399Z,978.62
2022-11-18T03:52:08.372Z,978.65
2022-11-18T03:53:08.359Z,978.71
2022-11-18T03:54:08.346Z,978.75
2022-11-18T03:55:08.332Z,978.73
2022-11-18T03:56:12.750Z,978.72
2022-11-18T03:57:08.306Z,978.72
2022-11-18T03:58:08.295Z,978.71
2022-11-18T03:59:08.306Z,978.74
2022-11-18T04:00:08.268Z,978.77
2022-11-18T04:01:08.287Z,978.73
2022-11-18T04:03:08.227Z,978.68
2022-11-18T04:04:08.217Z,978.70
2022-11-18T04:05:08.202Z,978.68
2022-11-18T04:06:08.191Z,978.70
2022-11-18T04:07:08.212Z,978.71
2022-11-18T04:08:08.166Z,978.73
2022-11-18T04:09:08.150Z,978.72
2022-11-18T04:10:08.139Z,978.79
2022-11-18T04:11:08.125Z,978.72
2022-11-18T04:12:08.114Z,978.78
2022-11-18T04:14:08.088Z,978.78
2022-11-18T04:15:08.099Z,978.89
2022-11-18T04:16:08.062Z,978.86
2022-11-18T04:17:08.047Z,978.89
2022-11-18T04:18:08.036Z,978.85
2022-11-18T04:19:08.025Z,978.92
2022-11-18T04:20:08.010Z,978.88
2022-11-18T04:21:07.996Z,978.86
2022-11-18T04:22:07.984Z,978.92
2022-11-18T04:23:07.970Z,978.92
2022-11-18T04:25:07.944Z,978.91
2022-11-18T04:26:07.932Z,978.86
2022-11-18T04:27:07.918Z,978.91
2022-11-18T04:28:07.908Z,978.96
2022-11-18T04:29:07.893Z,978.94
2022-11-18T04:30:07.883Z,978.92
2022-11-18T04:31:07.893Z,978.92
2022-11-18T04:32:07.858Z,978.98
2022-11-18T04:33:07.840Z,978.97
2022-11-18T04:34:07.834Z,979.04
2022-11-18T04:36:07.804Z,979.08
2022-11-18T04:37:07.789Z,979.04
2022-11-18T04:38:07.779Z,979.07
2022-11-18T04:39:07.764Z,979.05
2022-11-18T04:40:07.753Z,979.09
2022-11-18T04:41:07.737Z,979.06
2022-11-18T04:42:07.726Z,979.04
2022-11-18T04:43:07.711Z,979.09
2022-11-18T04:44:07.703Z,979.07
2022-11-18T04:45:07.685Z,979.09
2022-11-18T04:47:07.686Z,979.16
2022-11-18T04:48:07.648Z,979.20
2022-11-18T04:49:07.633Z,979.11
2022-11-18T04:50:07.627Z,979.14
2022-11-18T04:51:07.609Z,979.13
2022-11-18T04:52:07.603Z,979.14
2022-11-18T04:53:07.583Z,979.13
2022-11-18T04:54:07.572Z,979.16
2022-11-18T04:55:07.557Z,979.14
2022-11-18T04:56:07.549Z,979.16
2022-11-18T04:58:07.520Z,979.20
2022-11-18T04:59:07.506Z,979.19
2022-11-18T05:00:07.496Z,979.18
2022-11-18T05:01:07.526Z,979.22
2022-11-18T05:02:07.467Z,979.20
2022-11-18T05:03:07.479Z,979.24
2022-11-18T05:04:07.442Z,979.31
2022-11-18T05:05:07.428Z,979.28
2022-11-18T05:06:07.417Z,979.23
2022-11-18T05:07:07.479Z,979.27
2022-11-18T05:09:07.379Z,979.28
2022-11-18T05:10:07.367Z,979.29
2022-11-18T05:11:07.351Z,979.27
2022-11-18T05:12:07.340Z,979.31
2022-11-18T05:13:07.327Z,979.31
2022-11-18T05:14:07.317Z,979.31
2022-11-18T05:15:07.302Z,979.35
2022-11-18T05:16:07.289Z,979.32
2022-11-18T05:17:07.273Z,979.26
2022-11-18T05:18:07.263Z,979.30
2022-11-18T05:20:07.236Z,979.33
2022-11-18T05:21:07.223Z,979.34
2022-11-18T05:22:07.211Z,979.35
2022-11-18T05:23:07.198Z,979.30
2022-11-18T05:24:07.185Z,979.32
2022-11-18T05:25:07.170Z,979.30
2022-11-18T05:26:07.160Z,979.30
2022-11-18T05:27:07.149Z,979.40
2022-11-18T05:28:07.134Z,979.43
2022-11-18T05:29:07.119Z,979.32
2022-11-18T05:31:07.093Z,979.41
2022-11-18T05:32:07.088Z,979.40
2022-11-18T05:33:07.067Z,979.38
2022-11-18T05:34:07.058Z,979.45
2022-11-18T05:35:07.069Z,979.46
2022-11-18T05:36:07.030Z,979.48
2022-11-18T05:37:07.015Z,979.50
2022-11-18T05:38:07.004Z,979.51
2022-11-18T05:39:06.990Z,979.54
2022-11-18T05:40:06.979Z,979.54
2022-11-18T05:42:06.954Z,979.55
2022-11-18T05:43:06.938Z,979.60
2022-11-18T05:44:06.928Z,979.61
2022-11-18T05:45:06.913Z,979.64
2022-11-18T05:46:06.902Z,979.68
2022-11-18T05:47:06.887Z,979.68
2022-11-18T05:48:06.874Z,979.70
2022-11-18T05:49:06.861Z,979.71
2022-11-18T05:50:06.851Z,979.69
2022-11-18T05:51:06.857Z,979.73
2022-11-18T05:53:06.811Z,979.72
2022-11-18T05:54:06.801Z,979.77
2022-11-18T05:55:06.787Z,979.76
2022-11-18T05:56:06.777Z,979.75
2022-11-18T05:57:06.760Z,979.75
2022-11-18T05:58:06.759Z,979.75
2022-11-18T05:59:06.735Z,979.78
2022-11-18T06:00:06.725Z,979.79
2022-11-18T06:01:06.723Z,979.84
2022-11-18T06:02:06.700Z,979.81
2022-11-18T06:04:06.677Z,979.82
2022-11-18T06:05:06.661Z,979.80
2022-11-18T06:06:06.648Z,979.91
2022-11-18T06:07:06.776Z,979.84
2022-11-18T06:08:06.627Z,979.84
2022-11-18T06:09:06.612Z,979.83
2022-11-18T06:10:06.602Z,979.88
2022-11-18T06:11:06.588Z,979.89
2022-11-18T06:12:06.576Z,979.93
2022-11-18T06:13:06.560Z,979.92
2022-11-18T06:15:06.535Z,979.86
2022-11-18T06:16:06.524Z,979.92
2022-11-18T06:17:06.512Z,979.86
2022-11-18T06:18:06.506Z,979.97
2022-11-18T06:19:06.485Z,979.97
2022-11-18T06:20:06.472Z,980.02
2022-11-18T06:21:06.460Z,980.01
2022-11-18T06:22:06.449Z,980.00
2022-11-18T06:23:06.457Z,980.01
2022-11-18T06:24:06.423Z,980.04
2022-11-18T06:26:06.399Z,980.07
2022-11-18T06:27:06.387Z,980.12
2022-11-18T06:28:06.372Z,980.12
2022-11-18T06:29:06.358Z,980.15
2022-11-18T06:30:06.346Z,980.14
2022-11-18T06:31:06.333Z,980.20
2022-11-18T06:32:06.322Z,980.22
2022-11-18T06:33:06.307Z,980.24
2022-11-18T06:34:06.301Z,980.17
2022-11-18T06:35:06.282Z,980.24
2022-11-18T06:37:06.258Z,980.26
2022-11-18T06:38:06.245Z,980.20
2022-11-18T06:39:06.265Z,980.25
2022-11-18T06:40:06.222Z,980.22
2022-11-18T06:41:06.207Z,980.27
2022-11-18T06:42:06.201Z,980.23
2022-11-18T06:43:06.181Z,980.25
2022-11-18T06:44:06.189Z,980.26
2022-11-18T06:45:06.329Z,980.26
2022-11-18T06:46:09.118Z,980.29
2022-11-18T06:48:06.137Z,980.31
2022-11-18T06:49:06.106Z,980.32
2022-11-18T06:50:06.096Z,980.40
2022-11-18T06:51:06.282Z,980.40
2022-11-18T06:52:06.068Z,980.41
2022-11-18T06:53:06.054Z,980.40
2022-11-18T06:54:10.513Z,980.41
2022-11-18T06:55:06.068Z,980.43
2022-11-18T06:56:06.019Z,980.43
2022-11-18T06:57:06.004Z,980.46
2022-11-18T06:59:05.979Z,980.49
2022-11-18T07:00:05.982Z,980.52
2022-11-18T07:01:06.003Z,980.48
2022-11-18T07:02:05.940Z,980.48
2022-11-18T07:03:05.928Z,980.57
2022-11-18T07:04:05.924Z,980.52
2022-11-18T07:05:05.903Z,980.57
2022-11-18T07:06:05.889Z,980.60
2022-11-18T07:07:05.934Z,980.63
2022-11-18T07:08:05.865Z,980.64
2022-11-18T07:10:05.839Z,980.67
2022-11-18T07:11:05.855Z,980.68
2022-11-18T07:12:05.816Z,980.71
2022-11-18T07:13:05.811Z,980.76
2022-11-18T07:14:05.788Z,980.78
2022-11-18T07:15:05.779Z,980.79
2022-11-18T07:16:05.764Z,980.80
2022-11-18T07:17:05.754Z,980.81
2022-11-18T07:18:05.739Z,980.86
2022-11-18T07:19:05.727Z,980.86
2022-11-18T07:21:05.703Z,980.84
2022-11-18T07:22:05.688Z,980.84
2022-11-18T07:23:05.677Z,980.89
2022-11-18T07:24:05.664Z,980.91
2022-11-18T07:25:05.650Z,980.94
2022-11-18T07:26:05.638Z,980.89
2022-11-18T07:27:05.668Z,980.96
2022-11-18T07:28:05.612Z,980.96
2022-11-18T07:29:05.603Z,980.96
2022-11-18T07:30:05.588Z,980.95
2022-11-18T07:32:05.563Z,980.98
2022-11-18T07:33:05.552Z,980.98
2022-11-18T07:34:05.538Z,981.00
2022-11-18T07:35:05.528Z,981.05
2022-11-18T07:36:05.512Z,981.04
2022-11-18T07:37:05.503Z,981.02
2022-11-18T07:38:05.485Z,981.08
2022-11-18T07:39:05.479Z,981.00
2022-11-18T07:40:05.464Z,981.08
2022-11-18T07:41:05.451Z,981.08
2022-11-18T07:43:05.452Z,981.10
2022-11-18T07:44:05.413Z,981.10
2022-11-18T07:45:05.402Z,981.18
2022-11-18T07:46:05.384Z,981.20
2022-11-18T07:47:05.375Z,981.18
2022-11-18T07:48:05.380Z,981.16
2022-11-18T07:49:05.347Z,981.25
2022-11-18T07:50:05.336Z,981.25
2022-11-18T07:51:05.322Z,981.26
2022-11-18T07:52:05.305Z,981.26
2022-11-18T07:54:05.283Z,981.24
2022-11-18T07:55:05.284Z,981.24
2022-11-18T07:56:05.252Z,981.21
2022-11-18T07:57:05.256Z,981.28
2022-11-18T07:58:05.226Z,981.24
2022-11-18T07:59:05.241Z,981.28
2022-11-18T08:00:05.200Z,981.29
2022-11-18T08:01:05.248Z,981.33
2022-11-18T08:02:05.227Z,981.33
2022-11-18T08:03:05.162Z,981.35
2022-11-18T08:05:05.232Z,981.39
2022-11-18T08:06:05.121Z,981.43
2022-11-18T08:07:05.194Z,981.45
2022-11-18T08:08:05.095Z,981.43
2022-11-18T08:09:05.095Z,981.45
2022-11-18T08:10:05.078Z,981.47
2022-11-18T08:11:05.057Z,981.52
2022-11-18T08:12:05.043Z,981.53
2022-11-18T08:13:05.033Z,981.46
2022-11-18T08:14:05.016Z,981.51
2022-11-18T08:16:04.990Z,981.52
2022-11-18T08:17:04.978Z,981.48
2022-11-18T08:18:08.444Z,981.49
2022-11-18T08:19:04.954Z,981.51
2022-11-18T08:20:04.937Z,981.49
2022-11-18T08:21:04.925Z,981.49
2022-11-18T08:22:04.910Z,981.50
2022-11-18T08:23:04.898Z,981.56
2022-11-18T08:24:04.884Z,981.57
2022-11-18T08:25:04.871Z,981.52
2022-11-18T08:27:04.844Z,981.65
2022-11-18T08:28:04.830Z,981.62
2022-11-18T08:29:04.818Z,981.62
2022-11-18T08:30:04.803Z,981.66
2022-11-18T08:31:04.821Z,981.61
2022-11-18T08:32:04.779Z,981.64
2022-11-18T08:33:04.765Z,981.62
2022-11-18T08:34:04.759Z,981.61
2022-11-18T08:35:10.642Z,981.64
2022-11-18T08:36:04.724Z,981.63
2022-11-18T08:38:04.698Z,981.67
2022-11-18T08:39:04.685Z,981.71
2022-11-18T08:40:04.700Z,981.65
2022-11-18T08:41:04.662Z,981.71
2022-11-18T08:42:04.642Z,981.67
2022-11-18T08:43:04.629Z,981.66
2022-11-18T08:44:04.616Z,981.71
2022-11-18T08:45:04.605Z,981.68
2022-11-18T08:46:04.588Z,981.70
2022-11-18T08:47:04.608Z,981.75
2022-11-18T08:49:04.550Z,981.74
2022-11-18T08:50:04.601Z,981.69
2022-11-18T08:51:04.530Z,981.73
2022-11-18T08:52:04.509Z,981.72
2022-11-18T08:53:04.496Z,981.71
2022-11-18T08:54:04.482Z,981.75
2022-11-18T08:55:04.472Z,981.75
2022-11-18T08:56:04.454Z,981.73
2022-11-18T08:57:04.448Z,981.76
2022-11-18T08:58:04.432Z,981.80
2022-11-18T09:00:04.403Z,981.84
2022-11-18T09:01:04.477Z,981.81
2022-11-18T09:02:04.452Z,981.88
2022-11-18T09:03:04.491Z,981.83
2022-11-18T09:04:04.350Z,981.86
2022-11-18T09:05:04.339Z,981.90
2022-11-18T09:06:04.327Z,981.89
2022-11-18T09:07:04.347Z,981.84
2022-11-18T09:08:04.301Z,981.82
2022-11-18T09:09:06.481Z,981.87
2022-11-18T09:11:04.264Z,981.81
2022-11-18T09:12:04.250Z,981.83
2022-11-18T09:13:33.349Z,981.77
2022-11-18T09:15:19.880Z,981.87
2022-11-18T09:16:06.195Z,981.85
2022-11-18T09:17:04.193Z,981.84
2022-11-18T09:18:04.170Z,981.85
2022-11-18T09:19:31.535Z,981.82
2022-11-18T09:21:04.135Z,981.78
2022-11-18T09:22:04.119Z,981.82
2022-11-18T09:23:04.107Z,981.83
2022-11-18T09:24:04.093Z,981.84
2022-11-18T09:25:04.084Z,981.79
2022-11-18T09:26:04.066Z,981.78
2022-11-18T09:27:04.057Z,981.78
2022-11-18T09:28:04.043Z,981.84
2022-11-18T09:29:04.031Z,981.84
2022-11-18T09:30:04.018Z,981.98
2022-11-18T09:32:03.993Z,982.05
2022-11-18T09:33:03.980Z,981.80
2022-11-18T09:34:03.965Z,981.85
2022-11-18T09:35:04.015Z,981.79
2022-11-18T09:36:03.939Z,981.89
2022-11-18T09:37:03.929Z,981.92
2022-11-18T09:38:03.915Z,981.84
2022-11-18T09:39:03.908Z,981.89
2022-11-18T09:40:03.893Z,981.86
2022-11-18T09:41:03.882Z,981.77
2022-11-18T09:43:03.853Z,981.89
2022-11-18T09:44:03.837Z,981.92
2022-11-18T09:45:06.272Z,981.91
2022-11-18T09:46:05.812Z,981.89
2022-11-18T09:47:03.799Z,981.94
2022-11-18T09:48:03.787Z,981.97
2022-11-18T09:49:03.805Z,981.98
2022-11-18T09:50:20.373Z,982.01
2022-11-18T09:51:03.770Z,981.99
2022-11-18T09:52:03.733Z,982.01
2022-11-18T09:54:03.705Z,982.02
2022-11-18T09:55:03.696Z,982.03
2022-11-18T09:56:03.695Z,982.10
2022-11-18T09:57:03.668Z,982.09
2022-11-18T09:58:03.656Z,982.09
2022-11-18T09:59:03.642Z,982.07
2022-11-18T10:00:03.626Z,982.08
2022-11-18T10:01:03.623Z,982.14
2022-11-18T10:02:03.730Z,982.06
2022-11-18T10:03:03.589Z,982.22
2022-11-18T10:05:03.561Z,982.18
2022-11-18T10:06:03.548Z,982.25
2022-11-18T10:07:03.691Z,982.24
2022-11-18T10:08:03.522Z,982.08
2022-11-18T10:09:03.512Z,982.09
2022-11-18T10:10:03.496Z,982.16
2022-11-18T10:11:03.486Z,982.09
2022-11-18T10:12:03.471Z,982.02
2022-11-18T10:13:03.460Z,981.91
2022-11-18T10:14:03.445Z,981.94
2022-11-18T10:16:03.421Z,982.04
2022-11-18T10:17:03.409Z,981.96
2022-11-18T10:18:03.398Z,982.00
2022-11-18T10:19:03.383Z,982.17
2022-11-18T10:20:03.370Z,982.02
2022-11-18T10:21:03.358Z,982.01
2022-11-18T10:22:03.346Z,981.95
2022-11-18T10:23:03.362Z,982.17
2022-11-18T10:24:03.321Z,982.08
2022-11-18T10:25:03.309Z,982.05
2022-11-18T10:27:03.284Z,982.06
2022-11-18T10:28:03.270Z,982.01
2022-11-18T10:29:03.260Z,982.06
2022-11-18T10:30:03.245Z,982.15
2022-11-18T10:31:03.233Z,982.12
2022-11-18T10:32:04.223Z,982.02
2022-11-18T10:33:03.208Z,982.07
2022-11-18T10:34:03.195Z,982.11
2022-11-18T10:35:03.182Z,982.09
2022-11-18T10:36:03.168Z,982.10
2022-11-18T10:38:08.265Z,982.24
2022-11-18T10:39:03.159Z,982.05
2022-11-18T10:40:03.119Z,982.03
2022-11-18T10:41:03.106Z,982.08
2022-11-18T10:42:03.118Z,982.08
2022-11-18T10:43:03.083Z,982.10
2022-11-18T10:44:05.823Z,982.16
2022-11-18T10:45:05.055Z,982.12
2022-11-18T10:46:03.040Z,982.20
2022-11-18T10:47:03.028Z,982.20
2022-11-18T10:49:03.004Z,982.14
2022-11-18T10:50:02.989Z,982.21
2022-11-18T10:51:02.978Z,982.23
2022-11-18T10:52:02.965Z,982.28
2022-11-18T10:53:02.952Z,982.28
2022-11-18T10:54:02.939Z,982.29
2022-11-18T10:55:03.068Z,982.32
2022-11-18T10:56:02.911Z,982.31
2022-11-18T10:57:02.901Z,982.27
2022-11-18T10:58:02.887Z,982.29
2022-11-18T11:00:03.008Z,982.37
2022-11-18T11:01:02.848Z,982.37
2022-11-18T11:02:08.342Z,982.33
2022-11-18T11:03:04.826Z,982.37
2022-11-18T11:04:02.807Z,982.35
2022-11-18T11:05:02.805Z,982.38
2022-11-18T11:06:02.784Z,982.31
2022-11-18T11:07:02.807Z,982.34
2022-11-18T11:08:29.055Z,982.39
2022-11-18T11:09:02.748Z,982.28
2022-11-18T11:11:02.743Z,982.31
2022-11-18T11:12:02.706Z,982.37
2022-11-18T11:13:02.692Z,982.35
2022-11-18T11:14:02.679Z,982.30
2022-11-18T11:15:02.678Z,982.35
2022-11-18T11:16:02.653Z,982.37
2022-11-18T11:17:02.724Z,982.36
2022-11-18T11:18:02.628Z,982.30
2022-11-18T11:19:02.614Z,982.30
2022-11-18T11:20:02.611Z,982.33
2022-11-18T11:22:02.578Z,982.39
2022-11-18T11:23:02.560Z,982.48
2022-11-18T11:24:02.552Z,982.27
2022-11-18T11:25:02.536Z,982.29
2022-11-18T11:28:19.979Z,982.18
2022-11-18T11:29:04.484Z,982.23
2022-11-18T11:30:02.473Z,982.23
2022-11-18T11:31:02.459Z,982.27
2022-11-18T11:33:02.433Z,982.33
2022-11-18T11:34:02.420Z,982.37
2022-11-18T11:35:02.409Z,982.31
2022-11-18T11:36:02.394Z,982.40
2022-11-18T11:37:02.380Z,982.34
2022-11-18T11:38:02.370Z,982.36
2022-11-18T11:39:04.851Z,982.32
2022-11-18T11:40:02.344Z,982.45
2022-11-18T11:41:02.327Z,982.42
2022-11-18T11:42:02.316Z,982.41
2022-11-18T11:44:02.291Z,982.41
2022-11-18T11:45:02.279Z,982.57
2022-11-18T11:46:02.264Z,982.48
2022-11-18T11:47:02.250Z,982.55
2022-11-18T11:48:02.244Z,982.49
2022-11-18T11:49:02.229Z,982.54
2022-11-18T11:50:02.216Z,982.41
2022-11-18T11:51:04.733Z,982.41
2022-11-18T11:52:02.188Z,982.33
2022-11-18T11:53:02.180Z,982.36
2022-11-18T11:55:02.150Z,982.23
2022-11-18T11:56:02.136Z,982.34
2022-11-18T11:57:02.123Z,982.28
2022-11-18T11:58:02.114Z,982.29
2022-11-18T11:59:02.120Z,982.26
2022-11-18T12:00:02.089Z,982.27
2022-11-18T12:01:02.073Z,982.18
2022-11-18T12:02:02.061Z,982.12
2022-11-18T12:03:02.136Z,982.24
2022-11-18T12:04:02.036Z,982.09
2022-11-18T12:06:02.011Z,982.18
2022-11-18T12:07:02.040Z,982.20
2022-11-18T12:08:01.987Z,982.20
2022-11-18T12:09:01.972Z,982.34
2022-11-18T12:10:01.965Z,982.36
2022-11-18T12:11:01.948Z,982.32
2022-11-18T12:12:01.937Z,982.40
2022-11-18T12:13:01.920Z,982.25
2022-11-18T12:14:01.909Z,982.34
2022-11-18T12:15:01.922Z,982.38
2022-11-18T12:17:01.880Z,982.38
2022-11-18T12:18:01.864Z,982.35
2022-11-18T12:19:01.847Z,982.36
2022-11-18T12:20:01.837Z,982.36
2022-11-18T12:21:01.822Z,982.33
2022-11-18T12:22:01.812Z,982.35
2022-11-18T12:23:01.797Z,982.46
2022-11-18T12:24:01.789Z,982.38
2022-11-18T12:25:01.779Z,982.30
2022-11-18T12:26:01.766Z,982.33
2022-11-18T12:28:01.740Z,982.40
2022-11-18T12:29:01.725Z,982.38
2022-11-18T12:30:01.745Z,982.38
2022-11-18T12:31:01.802Z,982.34
2022-11-18T12:32:01.689Z,982.15
2022-11-18T12:33:01.677Z,982.21
2022-11-18T12:34:01.666Z,982.27
2022-11-18T12:35:01.652Z,982.13
2022-11-18T12:36:01.641Z,982.26
2022-11-18T12:37:01.625Z,982.30
2022-11-18T12:39:01.603Z,982.39
2022-11-18T12:40:01.595Z,982.41
2022-11-18T12:41:01.573Z,982.45
2022-11-18T12:42:01.563Z,982.51
2022-11-18T12:43:01.549Z,982.55
2022-11-18T12:44:01.542Z,982.52
2022-11-18T12:45:01.524Z,982.48
2022-11-18T12:46:01.513Z,982.53
2022-11-18T12:47:01.520Z,982.50
2022-11-18T12:48:01.486Z,982.55
2022-11-18T12:50:01.465Z,982.74
2022-11-18T12:51:01.447Z,982.64
2022-11-18T12:52:01.438Z,982.50
2022-11-18T12:53:01.421Z,982.55
2022-11-18T12:54:01.413Z,982.52
2022-11-18T12:55:01.399Z,982.27
2022-11-18T12:56:01.384Z,982.35
2022-11-18T12:57:01.370Z,982.46
2022-11-18T12:58:01.375Z,982.46
2022-11-18T12:59:01.342Z,982.45
2022-11-18T13:01:01.375Z,982.57
2022-11-18T13:02:01.305Z,982.56
2022-11-18T13:03:01.357Z,982.47
2022-11-18T13:04:01.280Z,982.44
2022-11-18T13:05:01.264Z,982.54
2022-11-18T13:06:01.252Z,982.53
2022-11-18T13:07:01.317Z,982.49
2022-11-18T13:08:01.227Z,982.49
2022-11-18T13:09:01.212Z,982.46
2022-11-18T13:10:01.200Z,982.40
2022-11-18T13:12:01.252Z,982.40
2022-11-18T13:13:01.163Z,982.45
2022-11-18T13:14:01.149Z,982.43
2022-11-18T13:15:01.135Z,982.44
2022-11-18T13:16:01.126Z,982.37
2022-11-18T13:17:01.108Z,982.41
2022-11-18T13:18:01.099Z,982.49
2022-11-18T13:19:01.130Z,982.48
2022-11-18T13:20:01.075Z,982.38
2022-11-18T13:21:01.060Z,982.36
2022-11-18T13:23:01.035Z,982.39
2022-11-18T13:24:01.151Z,982.35
2022-11-18T13:25:01.014Z,982.39
2022-11-18T13:26:01.001Z,982.40
2022-11-18T13:27:00.988Z,982.25
2022-11-18T13:28:00.975Z,982.30
2022-11-18T13:29:00.960Z,982.26
2022-11-18T13:30:00.949Z,982.27
2022-11-18T13:31:00.935Z,982.35
2022-11-18T13:32:00.926Z,982.33
2022-11-18T13:34:00.897Z,982.39
2022-11-18T13:35:00.909Z,982.41
2022-11-18T13:36:00.873Z,982.35
2022-11-18T13:37:00.859Z,982.35
2022-11-18T13:38:00.846Z,982.35
2022-11-18T13:39:00.834Z,982.38
2022-11-18T13:40:00.821Z,982.44
2022-11-18T13:41:00.808Z,982.41
2022-11-18T13:42:00.799Z,982.41
2022-11-18T13:43:00.784Z,982.39
2022-11-18T13:45:00.757Z,982.55
2022-11-18T13:46:00.745Z,982.62
2022-11-18T13:47:00.733Z,982.58